Time;durP1;ratioP1;P1;durP2;ratioP2;P2;SDS_P1;SDS_P2;PMS_P1;PMS_P2;Temp;Humidity;BMP_temperature;BMP_pressure;BME280_temperature;BME280_humidity;BME280_pressure;Samples;Min_cycle;Max_cycle;Signal;HPM_P1;HPM_P2
2022/12/04 00:01:21;;;;;;;7.65;4.50;;;4.40;99.90;;;;;;5011236;28;20474;-66
2022/12/04 00:03:53;;;;;;;9.70;5.00;;;4.40;99.90;;;;;;5020966;28;20053;-64
2022/12/04 00:06:22;;;;;;;9.40;4.50;;;4.40;99.90;;;;;;5016955;28;20421;-63
2022/12/04 00:08:51;;;;;;;8.98;4.40;;;4.40;99.90;;;;;;5015695;28;20493;-66
2022/12/04 00:11:21;;;;;;;8.00;4.67;;;4.40;99.90;;;;;;5010818;28;20045;-67
2022/12/04 00:13:50;;;;;;;9.00;4.88;;;4.30;99.90;;;;;;5021565;28;20054;-65
2022/12/04 00:16:20;;;;;;;12.38;4.40;;;4.30;99.90;;;;;;5029103;28;20038;-73
2022/12/04 00:18:48;;;;;;;11.00;4.03;;;4.20;99.90;;;;;;5038980;28;20049;-72
2022/12/04 00:21:17;;;;;;;7.82;3.67;;;4.30;99.90;;;;;;5034344;28;20767;-72
2022/12/04 00:23:45;;;;;;;7.22;3.35;;;4.20;99.90;;;;;;5021941;28;20056;-73
2022/12/04 00:26:17;;;;;;;5.55;3.55;;;4.20;99.90;;;;;;5010687;28;20266;-74
2022/12/04 00:28:46;;;;;;;6.03;3.00;;;4.20;99.90;;;;;;5025344;28;20045;-63
2022/12/04 00:31:25;;;;;;;4.18;2.90;;;4.20;99.90;;;;;;5012333;28;20065;-74
2022/12/04 00:33:53;;;;;;;8.27;3.40;;;4.20;99.90;;;;;;5018947;28;20045;-72
2022/12/04 00:36:23;;;;;;;6.03;4.60;;;4.20;99.90;;;;;;5010875;28;20582;-74
2022/12/04 00:38:51;;;;;;;7.05;3.25;;;4.30;99.90;;;;;;5029766;28;20398;-74
2022/12/04 00:41:22;;;;;;;8.50;3.75;;;4.20;99.90;;;;;;5028964;28;20061;-75
2022/12/04 00:43:51;;;;;;;11.27;3.70;;;4.30;99.90;;;;;;5020587;28;20053;-74
2022/12/04 00:46:19;;;;;;;11.88;3.60;;;4.40;99.90;;;;;;5019154;28;20053;-76
2022/12/04 00:48:47;;;;;;;6.72;4.18;;;4.40;99.90;;;;;;5019551;28;20497;-71
2022/12/04 00:51:18;;;;;;;8.52;4.10;;;4.40;99.90;;;;;;5025676;28;20049;-70
2022/12/04 00:53:46;;;;;;;6.90;3.80;;;4.50;99.90;;;;;;5017961;28;20497;-62
2022/12/04 00:56:17;;;;;;;9.02;4.32;;;4.40;99.90;;;;;;5024770;28;20045;-69
2022/12/04 00:58:45;;;;;;;6.00;3.78;;;4.50;99.90;;;;;;5024596;28;20410;-63
2022/12/04 01:01:15;;;;;;;6.00;4.10;;;4.50;99.90;;;;;;5009283;28;20413;-65
2022/12/04 01:03:44;;;;;;;7.40;4.30;;;4.50;99.90;;;;;;5019252;28;20042;-63
2022/12/04 01:06:19;;;;;;;7.13;4.07;;;4.50;99.90;;;;;;5020109;28;20060;-62
2022/12/04 01:08:48;;;;;;;7.90;4.80;;;4.50;99.90;;;;;;5030343;28;20052;-63
2022/12/04 01:11:16;;;;;;;7.47;4.47;;;4.50;99.90;;;;;;5048746;28;20041;-62
2022/12/04 01:13:44;;;;;;;7.47;4.70;;;4.40;99.90;;;;;;5014738;28;20053;-72
2022/12/04 01:16:46;;;;;;;10.55;5.32;;;4.30;99.90;;;;;;5009055;28;20052;-64
2022/12/04 01:19:13;;;;;;;11.60;5.35;;;4.40;99.90;;;;;;5034504;28;20045;-64
2022/12/04 01:21:46;;;;;;;12.00;5.75;;;4.30;99.90;;;;;;4995741;28;20049;-65
2022/12/04 01:24:14;;;;;;;10.23;5.38;;;4.30;99.90;;;;;;5022330;28;20049;-64
2022/12/04 01:26:42;;;;;;;9.48;4.35;;;4.30;99.90;;;;;;5029029;28;20057;-66
2022/12/04 01:29:09;;;;;;;8.93;4.97;;;4.20;99.90;;;;;;5026446;28;20041;-64
2022/12/04 01:31:37;;;;;;;7.20;4.82;;;4.20;99.90;;;;;;5012091;28;20046;-64
2022/12/04 01:34:05;;;;;;;12.23;4.90;;;4.10;99.90;;;;;;5019547;28;20049;-64
2022/12/04 01:36:32;;;;;;;8.70;5.00;;;4.00;99.90;;;;;;5019640;28;20053;-68
2022/12/04 01:39:00;;;;;;;8.98;4.90;;;4.00;99.90;;;;;;5030590;28;20049;-64
2022/12/04 01:41:30;;;;;;;7.30;4.47;;;3.90;99.90;;;;;;5042185;28;20049;-63
2022/12/04 01:44:22;;;;;;;9.70;4.43;;;3.90;99.90;;;;;;5012778;28;20046;-64
2022/12/04 01:46:51;;;;;;;8.07;4.78;;;3.90;99.90;;;;;;5008922;28;20066;-65
2022/12/04 01:49:38;;;;;;;10.32;4.95;;;3.90;99.90;;;;;;5010888;28;20038;-63
2022/12/04 01:52:32;;;;;;;10.43;5.28;;;3.90;99.90;;;;;;5040479;28;20513;-64
2022/12/04 01:55:00;;;;;;;7.65;4.50;;;4.00;99.90;;;;;;5031220;28;20061;-63
2022/12/04 01:57:31;;;;;;;8.05;4.90;;;4.10;99.90;;;;;;5010279;28;20062;-63
2022/12/04 02:00:10;;;;;;;9.30;4.40;;;4.10;99.90;;;;;;5016492;28;20489;-63
2022/12/04 02:02:44;;;;;;;9.30;4.40;;;4.10;99.90;;;;;;5008871;28;20057;-64
2022/12/04 02:08:26;;;;;;;6.18;4.55;;;3.90;99.90;;;;;;5020730;22;20047;-91
2022/12/04 02:14:38;;;;;;;8.45;4.45;;;3.90;99.90;;;;;;4966067;28;20047;-72
2022/12/04 02:17:22;;;;;;;14.30;5.03;;;3.90;99.90;;;;;;4969147;28;20050;-73
2022/12/04 02:20:37;;;;;;;9.25;4.95;;;3.80;99.90;;;;;;4955937;28;20529;-73
2022/12/04 02:23:43;;;;;;;10.00;5.55;;;3.80;99.90;;;;;;4940053;28;20055;-73
2022/12/04 02:26:16;;;;;;;12.68;6.38;;;3.80;99.90;;;;;;4942772;29;20512;-70
2022/12/04 02:29:06;;;;;;;8.95;5.03;;;3.90;99.90;;;;;;4960424;28;20398;-74
2022/12/04 02:31:43;;;;;;;9.63;4.93;;;3.90;99.90;;;;;;4961960;28;20556;-73
2022/12/04 02:34:37;;;;;;;9.48;4.88;;;3.90;99.90;;;;;;4952313;29;20043;-75
2022/12/04 02:37:14;;;;;;;6.25;3.90;;;3.90;99.90;;;;;;4932800;28;20065;-73
2022/12/04 02:39:59;;;;;;;6.65;3.85;;;4.00;99.90;;;;;;4962652;28;20402;-75
2022/12/04 02:42:43;;;;;;;5.68;3.75;;;4.00;99.90;;;;;;4964543;28;20059;-72
2022/12/04 02:45:19;;;;;;;7.15;4.05;;;4.00;99.90;;;;;;4934971;28;20414;-63
2022/12/04 02:47:47;;;;;;;7.80;3.50;;;4.10;99.90;;;;;;4976676;28;20047;-74
2022/12/04 02:50:18;;;;;;;9.02;3.83;;;4.10;99.90;;;;;;4972068;28;20070;-75
2022/12/04 02:52:53;;;;;;;6.65;3.85;;;4.20;99.90;;;;;;4971550;28;20055;-74
2022/12/04 02:55:28;;;;;;;7.25;3.80;;;4.20;99.90;;;;;;4971378;28;20059;-63
2022/12/04 02:58:01;;;;;;;5.20;3.58;;;4.20;99.90;;;;;;4970965;28;20486;-65
2022/12/04 03:00:30;;;;;;;9.88;4.97;;;4.20;99.90;;;;;;4970846;28;20050;-63
2022/12/04 03:03:07;;;;;;;10.00;4.60;;;4.30;99.90;;;;;;4971912;28;20043;-63
2022/12/04 03:05:54;;;;;;;10.45;5.13;;;4.30;99.90;;;;;;4972115;28;20351;-62
2022/12/04 03:08:44;;;;;;;6.68;4.45;;;4.30;99.90;;;;;;4971310;28;20486;-65
2022/12/04 03:11:12;;;;;;;7.60;4.55;;;4.30;99.90;;;;;;4971171;28;20050;-62
2022/12/04 03:13:43;;;;;;;8.80;4.95;;;4.30;99.90;;;;;;4975901;28;20058;-62
2022/12/04 03:16:38;;;;;;;9.73;4.35;;;4.30;99.90;;;;;;4975903;28;20060;-62
2022/12/04 03:19:15;;;;;;;9.20;4.45;;;4.30;99.90;;;;;;4966061;28;20054;-63
2022/12/04 03:21:49;;;;;;;6.85;4.28;;;4.30;99.90;;;;;;4975708;28;20051;-62
2022/12/04 03:24:24;;;;;;;8.85;5.15;;;4.30;99.90;;;;;;4975880;28;20051;-62
2022/12/04 03:26:58;;;;;;;7.40;4.93;;;4.30;99.90;;;;;;4975806;28;20062;-62
2022/12/04 03:29:51;;;;;;;9.93;5.13;;;4.30;99.90;;;;;;4974168;28;20078;-62
2022/12/04 03:32:45;;;;;;;9.13;5.30;;;4.30;99.90;;;;;;4966152;28;20047;-70
2022/12/04 03:35:24;;;;;;;9.30;4.70;;;4.30;99.90;;;;;;4975498;28;20047;-63
2022/12/04 03:38:18;;;;;;;9.73;5.10;;;4.30;99.90;;;;;;4975045;28;20050;-64
2022/12/04 03:40:58;;;;;;;11.95;5.65;;;4.30;99.90;;;;;;4975965;28;20410;-67
2022/12/04 03:43:32;;;;;;;10.32;6.00;;;4.20;99.90;;;;;;4975694;28;20474;-65
2022/12/04 03:46:08;;;;;;;9.95;5.25;;;4.20;99.90;;;;;;4975501;28;20058;-67
2022/12/04 03:48:48;;;;;;;9.43;5.22;;;4.20;99.90;;;;;;4975010;28;20046;-63
2022/12/04 03:51:31;;;;;;;9.40;5.10;;;4.10;99.90;;;;;;4990666;28;20062;-64
2022/12/04 03:54:18;;;;;;;8.82;5.45;;;3.90;99.90;;;;;;4974137;28;20054;-63
2022/12/04 03:57:13;;;;;;;7.78;5.20;;;3.90;99.90;;;;;;4975721;28;20039;-63
2022/12/04 04:00:17;;;;;;;10.80;6.10;;;3.90;99.90;;;;;;4969002;28;20382;-62
2022/12/04 04:03:27;;;;;;;11.65;6.00;;;3.80;99.90;;;;;;4953717;28;20047;-63
2022/12/04 04:06:03;;;;;;;10.35;5.43;;;3.70;99.90;;;;;;4975141;28;20058;-62
2022/12/04 04:08:34;;;;;;;10.82;6.13;;;3.80;99.90;;;;;;4974286;28;20054;-62
2022/12/04 04:11:17;;;;;;;10.90;6.53;;;3.80;99.90;;;;;;4975026;28;20054;-63
2022/12/04 04:25:29;;;;;;;14.02;6.80;;;3.90;99.90;;;;;;4974767;28;20351;-62
2022/12/04 04:27:57;;;;;;;9.52;6.28;;;4.00;99.90;;;;;;4973999;28;20390;-63
2022/12/04 04:30:28;;;;;;;11.90;6.20;;;4.00;99.90;;;;;;4974977;28;20053;-62
2022/12/04 04:33:09;;;;;;;9.20;5.78;;;4.00;99.90;;;;;;4974765;28;20058;-62
2022/12/04 04:36:04;;;;;;;8.20;5.40;;;4.00;99.90;;;;;;4974723;28;20051;-62
2022/12/04 04:39:00;;;;;;;7.78;5.07;;;3.90;99.90;;;;;;4972419;28;20405;-63
2022/12/04 04:41:37;;;;;;;9.85;5.35;;;4.00;99.90;;;;;;4974608;28;20051;-64
2022/12/04 04:44:33;;;;;;;11.27;4.85;;;4.00;99.90;;;;;;4974425;28;20054;-63
2022/12/04 04:47:04;;;;;;;7.07;4.60;;;4.00;99.90;;;;;;4974574;28;20070;-63
2022/12/04 04:49:35;;;;;;;8.65;4.82;;;4.00;99.90;;;;;;4973806;28;20054;-63
2022/12/04 04:52:03;;;;;;;7.65;4.80;;;4.00;99.90;;;;;;4974431;28;20394;-63
2022/12/04 04:54:34;;;;;;;5.72;4.40;;;3.90;99.90;;;;;;4973841;28;20069;-63
2022/12/04 04:57:01;;;;;;;7.07;4.35;;;3.90;99.90;;;;;;4974561;28;20047;-69
2022/12/04 04:59:29;;;;;;;8.07;4.60;;;3.90;99.90;;;;;;4973540;28;20053;-64
2022/12/04 05:01:57;;;;;;;7.13;4.68;;;3.90;99.90;;;;;;4974253;28;20047;-63
2022/12/04 05:04:24;;;;;;;8.90;4.97;;;3.90;99.90;;;;;;4974254;28;20042;-62
2022/12/04 05:06:52;;;;;;;7.88;4.78;;;3.90;99.90;;;;;;4973506;28;20047;-63
2022/12/04 05:09:20;;;;;;;7.70;4.53;;;3.90;99.90;;;;;;4973315;28;20039;-64
2022/12/04 05:11:47;;;;;;;5.95;4.15;;;3.90;99.90;;;;;;4972838;28;20050;-63
2022/12/04 05:14:15;;;;;;;6.38;4.07;;;3.80;99.90;;;;;;4935271;29;20055;-67
2022/12/04 05:16:43;;;;;;;7.63;4.60;;;3.80;99.90;;;;;;4916672;29;20492;-73
2022/12/04 05:21:59;;;;;;;7.50;4.45;;;3.80;99.90;;;;;;4927190;29;20048;-75
2022/12/04 05:24:27;;;;;;;5.60;3.97;;;3.80;99.90;;;;;;4935301;29;20523;-62
2022/12/04 05:26:54;;;;;;;7.32;4.20;;;3.70;99.90;;;;;;4934977;29;20052;-62
2022/12/04 05:29:22;;;;;;;10.32;4.82;;;3.80;99.90;;;;;;4935235;29;20391;-63
2022/12/04 05:31:50;;;;;;;5.28;3.38;;;3.70;99.90;;;;;;4934721;29;20043;-64
2022/12/04 05:34:17;;;;;;;4.45;3.40;;;3.70;99.90;;;;;;4949374;28;20055;-72
2022/12/04 05:36:45;;;;;;;5.75;3.60;;;3.70;99.90;;;;;;4935023;29;20047;-73
2022/12/04 05:39:13;;;;;;;4.28;3.20;;;3.80;99.90;;;;;;4934884;29;20055;-75
2022/12/04 05:41:40;;;;;;;3.83;2.63;;;3.80;99.90;;;;;;4934027;29;20546;-71
2022/12/04 05:44:08;;;;;;;6.43;3.25;;;3.80;99.90;;;;;;4934667;29;20058;-74
2022/12/04 05:46:36;;;;;;;4.43;2.60;;;3.80;99.90;;;;;;4934718;29;20396;-66
2022/12/04 05:49:03;;;;;;;3.42;2.60;;;3.80;99.90;;;;;;4928877;29;20055;-64
2022/12/04 05:51:31;;;;;;;2.83;2.13;;;3.80;99.90;;;;;;4915559;29;20055;-64
2022/12/04 05:53:59;;;;;;;2.80;2.22;;;3.80;99.90;;;;;;4925344;29;20052;-63
2022/12/04 05:56:27;;;;;;;2.13;1.65;;;3.80;99.90;;;;;;4922331;29;20060;-62
2022/12/04 05:58:54;;;;;;;2.97;2.00;;;3.80;99.90;;;;;;4931253;29;20048;-63
2022/12/04 06:01:23;;;;;;;2.95;2.10;;;3.80;99.90;;;;;;4928966;29;20056;-62
2022/12/04 06:03:51;;;;;;;3.33;1.95;;;3.80;99.90;;;;;;4921070;29;20507;-64
2022/12/04 06:06:22;;;;;;;4.40;2.53;;;3.80;99.90;;;;;;4922775;29;20055;-67
2022/12/04 06:08:52;;;;;;;3.70;2.25;;;3.80;99.90;;;;;;4916015;29;20059;-64
2022/12/04 06:11:26;;;;;;;3.55;2.53;;;3.80;99.90;;;;;;4916485;29;20051;-66
2022/12/04 06:13:55;;;;;;;3.47;1.98;;;3.80;99.90;;;;;;4956063;28;20490;-63
2022/12/04 06:16:29;;;;;;;5.00;2.42;;;3.80;99.90;;;;;;4973064;28;20054;-63
2022/12/04 06:18:59;;;;;;;3.97;2.38;;;3.80;99.90;;;;;;4969145;28;20541;-67
2022/12/04 06:21:29;;;;;;;3.67;2.47;;;3.80;99.90;;;;;;4984330;28;20054;-66
2022/12/04 06:23:57;;;;;;;4.30;2.50;;;3.80;99.90;;;;;;4963640;28;20050;-63
2022/12/04 06:26:26;;;;;;;5.15;2.63;;;3.80;99.90;;;;;;4967334;28;20058;-65
2022/12/04 06:28:58;;;;;;;3.53;2.35;;;3.90;99.90;;;;;;4954553;28;20047;-63
2022/12/04 06:31:27;;;;;;;3.05;2.13;;;3.80;99.90;;;;;;4964240;28;20055;-63
2022/12/04 06:33:56;;;;;;;4.80;2.67;;;3.80;99.90;;;;;;4964573;28;20054;-62
2022/12/04 06:36:24;;;;;;;3.88;2.78;;;3.80;99.90;;;;;;4949896;28;20126;-63
2022/12/04 06:38:55;;;;;;;3.60;2.67;;;3.80;99.90;;;;;;4967179;28;20046;-63
2022/12/04 06:41:25;;;;;;;3.63;2.45;;;3.80;99.90;;;;;;4968802;28;20051;-62
2022/12/04 06:43:52;;;;;;;2.97;2.20;;;3.80;99.90;;;;;;4962371;28;20043;-63
2022/12/04 06:46:22;;;;;;;6.13;2.67;;;3.80;99.90;;;;;;4964863;28;20054;-63
2022/12/04 06:48:52;;;;;;;4.05;2.92;;;3.80;99.90;;;;;;4968632;28;20043;-63
2022/12/04 06:51:31;;;;;;;4.78;2.55;;;3.80;99.90;;;;;;4964182;28;20047;-62
2022/12/04 06:53:59;;;;;;;3.90;2.53;;;3.80;99.90;;;;;;4966768;28;20046;-63
2022/12/04 06:56:29;;;;;;;4.57;2.33;;;3.80;99.90;;;;;;4966250;28;20042;-63
2022/12/04 06:58:59;;;;;;;4.32;2.70;;;3.80;99.90;;;;;;4959729;28;20058;-63
2022/12/04 07:01:30;;;;;;;3.53;2.20;;;3.80;99.90;;;;;;4965226;28;20047;-63
2022/12/04 07:03:58;;;;;;;5.18;2.78;;;3.80;99.90;;;;;;4965450;28;20303;-63
2022/12/04 07:06:29;;;;;;;3.60;2.33;;;3.80;99.90;;;;;;4981853;28;20055;-63
2022/12/04 07:09:00;;;;;;;4.78;3.42;;;3.80;99.90;;;;;;4968636;28;20463;-62
2022/12/04 07:11:28;;;;;;;4.22;2.50;;;3.80;99.90;;;;;;4968688;28;20430;-63
2022/12/04 07:13:56;;;;;;;4.22;2.67;;;3.80;99.90;;;;;;4958022;28;20644;-62
2022/12/04 07:16:25;;;;;;;4.82;3.05;;;3.80;99.90;;;;;;4960669;28;20054;-62
2022/12/04 07:18:53;;;;;;;3.80;2.47;;;3.90;99.90;;;;;;4968606;28;20050;-63
2022/12/04 07:21:23;;;;;;;4.10;2.65;;;3.90;99.90;;;;;;4966592;28;20078;-62
2022/12/04 07:23:53;;;;;;;4.25;2.95;;;3.80;99.90;;;;;;4967776;28;20046;-63
2022/12/04 07:26:21;;;;;;;4.57;3.05;;;3.80;99.90;;;;;;4967790;28;20046;-63
2022/12/04 07:28:49;;;;;;;4.60;3.10;;;3.80;99.90;;;;;;4965443;28;20515;-62
2022/12/04 07:31:19;;;;;;;6.45;3.60;;;3.80;99.90;;;;;;4977042;28;20044;-63
2022/12/04 07:33:48;;;;;;;6.47;3.28;;;3.70;99.90;;;;;;4964437;28;20039;-63
2022/12/04 07:36:18;;;;;;;5.60;3.83;;;3.80;99.90;;;;;;4966016;28;20398;-63
2022/12/04 07:38:45;;;;;;;;;;;3.80;99.90;;;;;;4968784;28;20051;-63
2022/12/04 07:41:13;;;;;;;5.13;3.35;;;3.80;99.90;;;;;;4967745;28;19922;-64
2022/12/04 07:43:41;;;;;;;6.35;3.72;;;3.80;99.90;;;;;;4970796;28;20055;-63
2022/12/04 07:46:15;;;;;;;7.18;4.30;;;3.80;99.90;;;;;;4968430;28;20058;-63
2022/12/04 07:48:43;;;;;;;8.27;4.68;;;3.90;99.90;;;;;;4968433;28;20065;-64
2022/12/04 07:51:20;;;;;;;7.88;4.10;;;3.90;99.90;;;;;;4967564;28;20039;-67
2022/12/04 07:53:49;;;;;;;7.55;4.13;;;3.80;99.90;;;;;;4968079;28;20051;-62
2022/12/04 07:56:18;;;;;;;7.47;4.32;;;3.90;99.90;;;;;;4968331;28;20043;-63
2022/12/04 07:58:46;;;;;;;6.78;3.92;;;3.90;99.90;;;;;;4969758;28;20039;-63
2022/12/04 08:01:19;;;;;;;8.10;4.60;;;3.90;99.90;;;;;;4955507;28;20073;-62
2022/12/04 08:03:49;;;;;;;4.95;3.45;;;4.00;99.90;;;;;;4959507;28;20044;-62
2022/12/04 08:06:19;;;;;;;6.88;3.08;;;4.00;99.90;;;;;;4971212;28;20051;-62
2022/12/04 08:08:47;;;;;;;5.80;3.30;;;4.00;99.90;;;;;;4970023;28;20047;-63
2022/12/04 08:11:18;;;;;;;5.43;2.90;;;4.00;99.90;;;;;;4971751;28;20042;-62
2022/12/04 08:13:45;;;;;;;5.00;2.80;;;4.00;99.90;;;;;;4986020;28;20059;-63
2022/12/04 08:16:14;;;;;;;4.88;3.17;;;4.00;99.90;;;;;;4972739;28;20035;-62
2022/12/04 08:18:45;;;;;;;5.00;3.30;;;4.00;99.90;;;;;;4970714;28;20402;-63
2022/12/04 08:21:19;;;;;;;4.20;2.88;;;4.00;99.90;;;;;;4971342;28;20302;-62
2022/12/04 08:23:49;;;;;;;5.22;3.10;;;4.00;99.90;;;;;;4969849;28;20135;-64
2022/12/04 08:26:18;;;;;;;7.25;2.90;;;4.00;99.90;;;;;;4971129;28;20066;-67
2022/12/04 08:28:46;;;;;;;3.88;3.00;;;4.00;99.90;;;;;;4972269;28;20046;-63
2022/12/04 08:31:20;;;;;;;7.90;3.40;;;4.00;99.90;;;;;;4965433;28;20046;-63
2022/12/04 08:33:49;;;;;;;4.50;2.50;;;4.10;99.90;;;;;;4964365;28;20058;-70
2022/12/04 08:36:19;;;;;;;4.63;2.70;;;4.10;99.90;;;;;;4971623;28;20038;-64
2022/12/04 08:38:47;;;;;;;4.18;2.53;;;4.10;99.90;;;;;;4985914;28;20042;-67
2022/12/04 08:41:18;;;;;;;5.93;2.80;;;4.10;99.90;;;;;;4970918;28;20046;-65
2022/12/04 08:43:46;;;;;;;6.80;3.30;;;4.10;99.90;;;;;;4970139;28;20047;-63
2022/12/04 08:46:16;;;;;;;4.32;2.88;;;4.10;99.90;;;;;;4969448;28;20051;-66
2022/12/04 08:48:44;;;;;;;;;;;4.10;99.90;;;;;;4970967;28;20047;-64
2022/12/04 08:51:21;;;;;;;5.00;2.95;;;4.10;99.90;;;;;;4971249;28;19977;-69
2022/12/04 08:53:58;;;;;;;5.30;2.60;;;4.20;99.90;;;;;;4970333;28;20055;-66
2022/12/04 08:56:27;;;;;;;3.65;2.17;;;4.20;99.90;;;;;;4949892;28;20047;-67
2022/12/04 08:58:56;;;;;;;4.90;2.97;;;4.30;99.90;;;;;;4964207;28;20524;-62
2022/12/04 09:01:24;;;;;;;5.50;2.92;;;4.30;99.90;;;;;;4964859;28;20441;-63
2022/12/04 09:03:53;;;;;;;6.15;3.50;;;4.30;99.90;;;;;;4967543;28;20040;-63
2022/12/04 09:06:21;;;;;;;7.43;3.20;;;4.30;99.90;;;;;;4961888;28;20061;-63
2022/12/04 09:08:54;;;;;;;5.53;3.42;;;4.40;99.90;;;;;;4969389;28;20050;-63
2022/12/04 09:11:24;;;;;;;8.63;3.60;;;4.40;99.90;;;;;;4971767;28;20062;-63
2022/12/04 09:13:52;;;;;;;6.82;2.97;;;4.40;99.90;;;;;;4964525;28;20058;-63
2022/12/04 09:16:22;;;;;;;8.05;3.20;;;4.40;99.90;;;;;;4960039;28;20046;-63
2022/12/04 09:18:50;;;;;;;6.00;2.97;;;4.50;99.90;;;;;;4969102;28;20042;-64
2022/12/04 09:21:19;;;;;;;7.32;3.13;;;4.40;99.90;;;;;;4970091;28;20047;-64
2022/12/04 09:23:47;;;;;;;6.45;3.40;;;4.40;99.90;;;;;;4969738;28;20054;-62
2022/12/04 09:26:27;;;;;;;9.50;3.47;;;4.40;99.90;;;;;;4972104;28;20046;-63
2022/12/04 09:28:58;;;;;;;7.38;3.67;;;4.40;99.90;;;;;;4968511;28;20051;-67
2022/12/04 09:31:26;;;;;;;9.23;3.53;;;4.30;99.90;;;;;;4965291;28;20038;-63
2022/12/04 09:33:53;;;;;;;6.10;3.15;;;4.40;99.90;;;;;;4968927;28;20050;-64
2022/12/04 09:36:22;;;;;;;14.45;4.00;;;4.40;99.90;;;;;;4970059;28;20057;-63
2022/12/04 09:38:52;;;;;;;11.50;3.63;;;4.40;99.90;;;;;;4969667;28;20047;-64
2022/12/04 09:41:43;;;;;;;8.68;4.32;;;4.40;99.90;;;;;;4968894;28;20501;-63
2022/12/04 09:44:25;;;;;;;7.47;4.07;;;4.50;99.90;;;;;;4984775;28;20054;-62
2022/12/04 09:47:08;;;;;;;11.15;4.45;;;4.60;99.90;;;;;;4951600;28;20522;-63
2022/12/04 09:49:49;;;;;;;11.90;3.75;;;4.50;99.90;;;;;;4982612;28;20059;-64
2022/12/04 09:52:25;;;;;;;15.02;4.10;;;4.60;99.90;;;;;;4969639;28;20054;-63
2022/12/04 09:54:56;;;;;;;12.13;4.40;;;4.60;99.90;;;;;;4968506;28;20047;-63
2022/12/04 09:57:47;;;;;;;7.57;3.92;;;4.70;99.90;;;;;;4983211;28;20614;-66
2022/12/04 10:00:18;;;;;;;14.70;4.72;;;4.70;99.90;;;;;;4976330;28;20039;-68
2022/12/04 10:03:10;;;;;;;16.15;4.65;;;4.70;99.90;;;;;;4957198;28;20054;-63
2022/12/04 10:06:06;;;;;;;15.90;6.50;;;4.70;99.90;;;;;;4972769;28;20046;-64
2022/12/04 10:08:48;;;;;;;8.75;3.75;;;4.70;99.90;;;;;;4969406;28;20054;-63
2022/12/04 10:11:39;;;;;;;15.98;5.90;;;4.80;99.90;;;;;;4969814;28;20545;-64
2022/12/04 10:14:22;;;;;;;20.63;8.27;;;4.80;99.90;;;;;;4969121;28;20047;-63
2022/12/04 10:17:51;;;;;;;16.73;6.60;;;4.80;99.90;;;;;;4958257;28;20509;-63
2022/12/04 10:20:19;;;;;;;12.75;6.25;;;4.80;99.90;;;;;;4926975;29;20047;-63
2022/12/04 10:23:09;;;;;;;17.05;5.68;;;4.90;99.90;;;;;;4967990;28;20057;-63
2022/12/04 10:25:42;;;;;;;13.05;5.45;;;4.90;99.90;;;;;;4963087;28;20049;-64
2022/12/04 10:28:22;;;;;;;17.92;5.43;;;4.90;99.90;;;;;;4968601;28;20058;-62
2022/12/04 10:30:53;;;;;;;12.48;4.93;;;5.00;99.90;;;;;;4966525;28;20035;-62
2022/12/04 10:33:32;;;;;;;11.13;4.53;;;5.00;99.90;;;;;;4966351;28;20066;-63
2022/12/04 10:36:01;;;;;;;13.65;5.65;;;5.00;99.90;;;;;;4969431;28;20057;-63
2022/12/04 10:38:55;;;;;;;14.60;4.93;;;5.10;99.90;;;;;;4972025;28;20054;-64
2022/12/04 10:41:57;;;;;;;9.98;4.47;;;5.10;99.90;;;;;;4968977;28;20058;-63
2022/12/04 10:44:25;;;;;;;12.93;5.18;;;5.10;99.90;;;;;;4931649;28;20055;-62
2022/12/04 10:46:57;;;;;;;11.65;4.72;;;5.10;99.90;;;;;;4966932;28;20047;-64
2022/12/04 10:49:27;;;;;;;11.73;4.55;;;5.10;99.90;;;;;;4967353;28;20053;-63
2022/12/04 10:51:55;;;;;;;12.70;4.88;;;5.20;99.90;;;;;;4968431;28;20051;-63
2022/12/04 10:54:47;;;;;;;14.05;4.90;;;5.20;99.90;;;;;;4950162;28;20141;-65
2022/12/04 10:57:15;;;;;;;9.02;3.90;;;5.20;99.90;;;;;;4968715;28;20038;-62
2022/12/04 10:59:54;;;;;;;9.77;4.15;;;5.20;99.90;;;;;;4968102;28;20391;-65
2022/12/04 11:02:33;;;;;;;18.98;5.70;;;5.20;99.90;;;;;;4966907;28;20066;-63
2022/12/04 11:05:21;;;;;;;13.10;4.80;;;5.30;99.90;;;;;;4968865;28;20043;-63
2022/12/04 11:07:50;;;;;;;10.52;4.28;;;5.20;99.90;;;;;;4982406;28;20044;-63
2022/12/04 11:10:37;;;;;;;13.65;4.82;;;5.30;99.90;;;;;;4983254;28;20486;-75
2022/12/04 11:13:16;;;;;;;12.07;6.40;;;5.30;99.90;;;;;;4979725;28;20043;-69
2022/12/04 11:15:47;;;;;;;22.52;9.48;;;5.30;99.90;;;;;;4975638;28;20043;-71
2022/12/04 11:18:23;;;;;;;45.60;19.27;;;5.40;99.90;;;;;;4962816;28;20043;-64
2022/12/04 11:21:17;;;;;;;13.57;6.10;;;5.40;99.90;;;;;;4964462;28;20047;-64
2022/12/04 11:23:48;;;;;;;12.73;5.22;;;5.40;99.90;;;;;;4962415;28;20055;-67
2022/12/04 11:26:28;;;;;;;17.92;7.78;;;5.40;99.90;;;;;;4951759;28;20059;-63
2022/12/04 11:29:00;;;;;;;13.18;4.97;;;5.50;99.90;;;;;;4963760;28;20047;-64
2022/12/04 11:31:28;;;;;;;12.80;5.28;;;5.60;99.90;;;;;;4966160;28;20043;-64
2022/12/04 11:34:01;;;;;;;21.63;5.53;;;5.60;99.90;;;;;;4962620;28;20059;-63
2022/12/04 11:36:42;;;;;;;15.45;4.95;;;5.60;99.90;;;;;;4969736;28;20054;-63
2022/12/04 11:39:18;;;;;;;16.00;6.10;;;5.60;99.90;;;;;;4963057;28;20043;-63
2022/12/04 11:41:57;;;;;;;14.13;5.38;;;5.60;99.90;;;;;;4971467;28;20069;-63
2022/12/04 11:44:28;;;;;;;16.50;5.83;;;5.60;99.90;;;;;;4971393;28;20050;-64
2022/12/04 11:46:58;;;;;;;11.32;4.97;;;5.60;99.90;;;;;;4986550;28;20038;-63
2022/12/04 11:49:28;;;;;;;13.73;5.03;;;5.60;99.90;;;;;;4968697;28;20446;-63
2022/12/04 11:52:07;;;;;;;11.95;6.00;;;5.70;99.90;;;;;;4957474;28;20066;-65
2022/12/04 11:54:54;;;;;;;;;;;5.70;99.90;;;;;;4966338;28;20051;-66
2022/12/04 11:57:38;;;;;;;14.65;5.53;;;5.70;99.90;;;;;;4977005;28;20365;-63
2022/12/04 12:00:18;;;;;;;15.10;5.75;;;5.80;99.90;;;;;;4982411;28;20525;-64
2022/12/04 12:03:01;;;;;;;14.60;6.60;;;5.80;99.90;;;;;;4972570;28;20663;-64
2022/12/04 12:06:07;;;;;;;13.18;6.60;;;5.90;99.90;;;;;;4966675;28;20393;-64
2022/12/04 12:08:44;;;;;;;19.08;6.88;;;5.90;99.90;;;;;;4932958;29;20051;-64
2022/12/04 12:11:52;;;;;;;15.98;5.85;;;5.90;99.90;;;;;;4964476;28;20406;-64
2022/12/04 12:14:36;;;;;;;16.63;6.88;;;6.00;99.90;;;;;;4938306;28;20050;-65
2022/12/04 12:17:09;;;;;;;15.50;5.38;;;6.00;99.90;;;;;;4956456;28;20050;-64
2022/12/04 12:20:09;;;;;;;22.25;6.35;;;6.00;99.90;;;;;;4971683;28;20039;-64
2022/12/04 12:22:56;;;;;;;16.33;6.72;;;6.00;99.90;;;;;;4961893;28;20054;-64
2022/12/04 12:25:38;;;;;;;14.10;5.28;;;6.10;99.90;;;;;;4976062;28;20525;-64
2022/12/04 12:28:35;;;;;;;13.57;5.63;;;6.10;99.90;;;;;;4970843;28;20047;-64
2022/12/04 12:31:10;;;;;;;10.63;4.97;;;6.10;99.90;;;;;;4946486;28;20062;-64
2022/12/04 12:34:10;;;;;;;25.73;5.93;;;6.10;99.90;;;;;;4972096;28;20046;-64
2022/12/04 12:36:43;;;;;;;14.25;4.75;;;6.10;99.90;;;;;;4967325;28;20046;-65
2022/12/04 12:39:37;;;;;;;12.30;4.70;;;6.10;99.90;;;;;;4969459;28;20043;-64
2022/12/04 12:42:11;;;;;;;12.00;4.97;;;6.10;99.90;;;;;;4959440;28;20050;-64
2022/12/04 12:44:54;;;;;;;12.05;4.65;;;6.00;99.90;;;;;;4963143;28;20058;-65
2022/12/04 12:47:27;;;;;;;24.23;9.57;;;6.00;99.90;;;;;;4952623;28;20054;-64
2022/12/04 12:50:14;;;;;;;31.73;11.07;;;6.00;99.90;;;;;;4959552;28;20074;-64
2022/12/04 12:52:45;;;;;;;21.52;9.43;;;5.90;99.90;;;;;;4963966;28;20429;-66
2022/12/04 12:55:24;;;;;;;23.75;11.43;;;5.90;99.90;;;;;;4962053;28;20050;-66
2022/12/04 12:58:13;;;;;;;11.40;5.38;;;5.90;99.90;;;;;;4968645;28;20061;-66
2022/12/04 13:01:02;;;;;;;17.00;5.20;;;6.00;99.90;;;;;;4970462;28;20046;-65
2022/12/04 13:03:44;;;;;;;14.85;4.43;;;6.00;99.90;;;;;;4964472;28;20050;-63
2022/12/04 13:06:17;;;;;;;11.80;5.10;;;6.00;99.90;;;;;;4961500;28;20043;-64
2022/12/04 13:09:06;;;;;;;12.48;4.90;;;6.10;99.90;;;;;;4970818;28;20511;-64
2022/12/04 13:11:35;;;;;;;11.07;4.10;;;6.20;99.90;;;;;;4953337;28;20051;-63
2022/12/04 13:14:09;;;;;;;16.13;5.45;;;6.20;99.90;;;;;;4966335;28;20049;-64
2022/12/04 13:16:56;;;;;;;10.55;4.75;;;6.20;99.90;;;;;;4970328;28;20054;-64
2022/12/04 13:20:01;;;;;;;9.98;3.97;;;6.30;99.90;;;;;;4968974;28;20050;-63
2022/12/04 13:23:15;;;;;;;8.95;4.20;;;6.30;99.90;;;;;;4929131;28;20047;-63
2022/12/04 13:26:09;;;;;;;13.02;4.50;;;6.30;99.90;;;;;;4966126;28;20053;-64
2022/12/04 13:28:40;;;;;;;14.38;4.90;;;6.30;99.90;;;;;;4957167;28;20050;-64
2022/12/04 13:31:39;;;;;;;12.35;4.82;;;6.40;99.90;;;;;;4969761;28;20039;-64
2022/12/04 13:34:37;;;;;;;12.13;4.95;;;6.30;99.90;;;;;;4965219;28;20510;-64
2022/12/04 13:37:29;;;;;;;11.85;5.10;;;6.30;99.90;;;;;;4967367;28;20057;-64
2022/12/04 13:40:28;;;;;;;12.52;3.70;;;6.40;99.90;;;;;;4954511;28;20058;-63
2022/12/04 13:43:26;;;;;;;7.90;4.30;;;6.40;99.90;;;;;;4956954;28;20074;-64
2022/12/04 13:45:56;;;;;;;15.85;5.03;;;6.40;99.90;;;;;;4956970;28;20051;-68
2022/12/04 13:48:38;;;;;;;9.93;4.50;;;6.40;99.90;;;;;;4960513;28;20051;-64
2022/12/04 13:51:37;;;;;;;12.90;4.85;;;6.30;99.90;;;;;;4968797;28;20050;-65
2022/12/04 13:54:11;;;;;;;13.07;5.10;;;6.30;99.90;;;;;;4942147;28;20051;-65
2022/12/04 13:56:42;;;;;;;9.77;4.72;;;6.30;99.90;;;;;;4968376;28;20042;-66
2022/12/04 13:59:21;;;;;;;13.95;5.43;;;6.30;99.90;;;;;;4965749;28;20707;-69